createdAt,value
2023-03-21T00:01:06.881Z,8.70
2023-03-21T00:02:39.964Z,9.10
2023-03-21T00:04:13.092Z,8.80
2023-03-21T00:05:49.876Z,8.80
2023-03-21T00:07:23.018Z,8.80
2023-03-21T00:08:56.094Z,8.90
2023-03-21T00:10:40.106Z,8.90
2023-03-21T00:12:17.196Z,8.90
2023-03-21T00:13:53.455Z,8.90
2023-03-21T00:15:39.946Z,8.90
2023-03-21T00:17:17.394Z,8.90
2023-03-21T00:18:52.414Z,9.00
2023-03-21T06:45:11.954Z,9.10
2023-03-21T06:46:45.124Z,9.10
2023-03-21T06:48:23.520Z,9.00
2023-03-21T06:49:56.392Z,8.90
2023-03-21T06:51:29.607Z,8.80
2023-03-21T06:53:13.542Z,8.90
2023-03-21T06:55:07.562Z,8.90
2023-03-21T06:56:41.282Z,8.90
2023-03-21T06:58:17.384Z,9.00
2023-03-21T06:59:50.825Z,8.90
2023-03-21T07:01:27.765Z,8.80
2023-03-21T07:03:08.539Z,8.90
2023-03-21T07:04:43.436Z,8.90
2023-03-21T07:06:26.971Z,9.00
2023-03-21T07:08:01.252Z,9.10
2023-03-21T07:09:37.646Z,9.00
2023-03-21T07:11:12.679Z,9.00
2023-03-21T07:12:46.626Z,9.00
2023-03-21T07:14:27.286Z,9.20
2023-03-21T07:16:00.705Z,9.20
2023-03-21T07:17:34.346Z,9.40
2023-03-21T07:19:07.450Z,9.40
2023-03-21T07:20:40.649Z,9.60
2023-03-21T07:22:14.216Z,9.70
2023-03-21T07:23:47.602Z,9.70
2023-03-21T07:25:23.532Z,9.80
2023-03-21T07:26:56.708Z,10.00
2023-03-21T07:28:31.133Z,10.10
2023-03-21T07:30:06.327Z,10.10
2023-03-21T07:31:39.890Z,10.10
2023-03-21T07:33:13.692Z,10.20
2023-03-21T07:34:47.010Z,10.20
2023-03-21T07:36:21.413Z,10.20
2023-03-21T07:37:54.550Z,10.00
2023-03-21T07:39:28.047Z,10.10
2023-03-21T07:41:02.631Z,10.20
2023-03-21T07:42:39.964Z,10.30
2023-03-21T07:44:13.893Z,10.50
2023-03-21T07:45:47.246Z,10.50
2023-03-21T07:47:20.677Z,10.50
2023-03-21T07:48:53.942Z,10.60
2023-03-21T07:50:28.528Z,10.60
2023-03-21T07:52:04.559Z,10.40
2023-03-21T07:53:38.164Z,10.30
2023-03-21T07:55:11.782Z,10.20
2023-03-21T07:56:46.262Z,10.00
2023-03-21T07:58:19.537Z,10.10
2023-03-21T07:59:52.690Z,10.10
2023-03-21T08:01:26.347Z,10.10
2023-03-21T08:02:59.988Z,10.30
2023-03-21T08:04:37.620Z,10.50
2023-03-21T08:06:11.828Z,10.40
2023-03-21T08:07:45.054Z,10.50
2023-03-21T08:09:18.178Z,10.40
2023-03-21T08:10:51.495Z,10.30
2023-03-21T08:12:26.096Z,10.40
2023-03-21T08:13:59.610Z,10.60
2023-03-21T08:15:32.732Z,10.80
2023-03-21T08:17:06.881Z,10.90
2023-03-21T08:18:40.082Z,11.00
2023-03-21T08:20:16.120Z,11.00
2023-03-21T08:21:49.477Z,10.60
2023-03-21T08:23:22.777Z,10.60
2023-03-21T08:24:55.899Z,10.80
2023-03-21T08:26:29.011Z,11.00
2023-03-21T08:28:04.417Z,11.10
2023-03-21T08:29:40.592Z,11.30
2023-03-21T08:31:14.731Z,11.50
2023-03-21T08:32:48.086Z,11.50
2023-03-21T08:34:23.043Z,11.60
2023-03-21T08:35:56.189Z,11.60
2023-03-21T08:37:29.674Z,11.60
2023-03-21T08:39:05.539Z,11.90
2023-03-21T08:40:38.938Z,11.90
2023-03-21T08:42:12.078Z,12.00
2023-03-21T08:43:46.537Z,12.10
2023-03-21T08:45:19.760Z,12.50
2023-03-21T08:46:52.875Z,12.40
2023-03-21T08:48:26.033Z,12.40
2023-03-21T08:49:59.326Z,12.50
2023-03-21T08:51:33.621Z,12.70
2023-03-21T08:53:06.899Z,13.30
2023-03-21T08:54:41.780Z,13.90
2023-03-21T08:56:14.914Z,14.10
2023-03-21T08:57:48.047Z,14.40
2023-03-21T08:59:22.688Z,14.50
2023-03-21T09:00:56.433Z,14.20
2023-03-21T09:02:29.483Z,13.40
2023-03-21T09:04:02.755Z,13.30
2023-03-21T09:05:36.752Z,12.80
2023-03-21T09:07:10.748Z,12.80
2023-03-21T09:08:46.264Z,12.60
2023-03-21T09:10:22.519Z,12.60
2023-03-21T09:11:56.037Z,12.70
2023-03-21T09:13:29.139Z,12.60
2023-03-21T09:15:04.763Z,12.80
2023-03-21T09:16:37.845Z,12.90
2023-03-21T09:18:15.134Z,13.20
2023-03-21T09:19:50.805Z,13.20
2023-03-21T09:21:24.941Z,13.40
2023-03-21T09:22:58.784Z,13.60
2023-03-21T09:24:32.162Z,14.00
2023-03-21T09:26:05.826Z,14.10
2023-03-21T09:27:39.370Z,14.20
2023-03-21T09:29:13.105Z,13.60
2023-03-21T09:30:47.606Z,14.20
2023-03-21T09:32:20.726Z,14.20
2023-03-21T09:33:55.262Z,14.80
2023-03-21T09:35:29.305Z,15.40
2023-03-21T09:37:03.428Z,14.90
2023-03-21T09:38:36.656Z,14.90
2023-03-21T09:40:18.160Z,14.80
2023-03-21T09:42:06.364Z,14.20
2023-03-21T09:43:54.965Z,13.60
2023-03-21T09:45:37.116Z,13.10
2023-03-21T09:47:20.730Z,13.10
2023-03-21T09:48:59.391Z,12.80
2023-03-21T09:50:35.038Z,12.80
2023-03-21T09:52:17.594Z,12.80
2023-03-21T09:53:52.120Z,13.10
2023-03-21T09:55:31.138Z,13.00
2023-03-21T09:57:14.954Z,13.30
2023-03-21T09:58:53.047Z,12.80
2023-03-21T10:00:30.006Z,12.80
2023-03-21T10:02:04.368Z,12.70
2023-03-21T10:03:39.132Z,12.90
2023-03-21T10:05:19.035Z,13.20
2023-03-21T10:06:59.201Z,12.90
2023-03-21T10:08:36.538Z,13.00
2023-03-21T10:10:17.621Z,12.80
2023-03-21T10:13:29.014Z,13.30
2023-03-21T10:15:05.384Z,13.60
2023-03-21T10:16:44.204Z,13.60
2023-03-21T10:18:24.864Z,14.00
2023-03-21T10:20:13.278Z,14.30
2023-03-21T10:22:00.897Z,14.50
2023-03-21T10:23:35.371Z,14.30
2023-03-21T10:25:12.253Z,14.80
2023-03-21T10:26:46.514Z,15.50
2023-03-21T10:28:22.870Z,16.10
2023-03-21T10:29:57.476Z,16.30
2023-03-21T10:31:31.825Z,15.90
2023-03-21T10:33:09.567Z,15.90
2023-03-21T10:34:45.964Z,16.30
2023-03-21T10:36:25.711Z,16.30
2023-03-21T10:37:58.911Z,16.90
2023-03-21T10:39:36.652Z,16.60
2023-03-21T10:41:12.437Z,16.40
2023-03-21T10:42:45.682Z,16.00
2023-03-21T10:44:20.911Z,15.80
2023-03-21T10:45:55.429Z,15.60
2023-03-21T10:47:31.538Z,15.40
2023-03-21T10:49:08.333Z,15.40
2023-03-21T10:50:42.857Z,15.40
2023-03-21T10:52:22.404Z,15.50
2023-03-21T10:53:57.696Z,15.20
2023-03-21T10:55:32.826Z,15.20
2023-03-21T10:57:09.467Z,15.10
2023-03-21T10:58:46.925Z,15.50
2023-03-21T11:00:23.216Z,16.00
2023-03-21T11:01:57.952Z,16.20
2023-03-21T11:03:34.865Z,16.30
2023-03-21T11:05:20.618Z,16.50
2023-03-21T11:06:56.947Z,16.50
2023-03-21T11:08:31.772Z,16.50
2023-03-21T11:10:28.063Z,16.50
2023-03-21T11:12:05.890Z,16.40
2023-03-21T11:13:41.204Z,16.70
2023-03-21T11:15:29.136Z,16.20
2023-03-21T11:17:02.309Z,17.00
2023-03-21T11:18:41.763Z,17.30
2023-03-21T11:20:20.034Z,17.00
2023-03-21T11:21:53.165Z,17.50
2023-03-21T11:23:29.719Z,17.40
2023-03-21T11:25:06.797Z,16.50
2023-03-21T11:26:43.494Z,16.40
2023-03-21T11:28:19.282Z,17.10
2023-03-21T11:29:53.267Z,16.70
2023-03-21T11:31:39.529Z,17.10
2023-03-21T11:33:13.876Z,17.30
2023-03-21T11:34:49.908Z,17.60
2023-03-21T11:36:34.765Z,17.40
2023-03-21T11:38:24.616Z,16.90
2023-03-21T11:40:09.477Z,16.80
2023-03-21T11:41:43.921Z,16.80
2023-03-21T11:43:29.763Z,16.80
2023-03-21T11:45:07.608Z,17.20
2023-03-21T11:46:42.015Z,17.30
2023-03-21T11:48:16.356Z,17.60
2023-03-21T11:49:51.315Z,17.50
2023-03-21T11:51:34.743Z,17.60
2023-03-21T11:53:21.327Z,17.60
2023-03-21T11:55:22.583Z,17.60
2023-03-21T11:57:01.342Z,17.60
2023-03-21T11:58:40.360Z,17.80
2023-03-21T12:00:20.836Z,17.70
2023-03-21T12:02:09.034Z,18.10
2023-03-21T12:04:04.115Z,18.50
2023-03-21T12:05:40.224Z,18.50
2023-03-21T12:07:37.753Z,18.70
2023-03-21T12:09:38.199Z,18.50
2023-03-21T12:11:19.539Z,18.50
2023-03-21T12:13:02.340Z,18.20
2023-03-21T12:14:47.263Z,18.40
2023-03-21T12:16:29.519Z,18.30
2023-03-21T12:18:13.213Z,18.00
2023-03-21T12:20:11.035Z,17.80
2023-03-21T12:21:55.231Z,16.60
2023-03-21T12:23:41.014Z,17.10
2023-03-21T12:25:18.783Z,17.10
2023-03-21T12:27:01.421Z,17.00
2023-03-21T12:28:46.055Z,16.90
2023-03-21T12:30:30.255Z,17.00
2023-03-21T12:32:14.674Z,16.60
2023-03-21T12:34:09.072Z,17.10
2023-03-21T12:35:51.307Z,16.80
2023-03-21T12:37:33.546Z,16.60
2023-03-21T12:39:19.370Z,16.90
2023-03-21T12:41:18.368Z,17.10
2023-03-21T12:43:07.173Z,17.00
2023-03-21T12:44:44.442Z,16.90
2023-03-21T12:46:23.506Z,17.20
2023-03-21T12:48:03.847Z,17.70
2023-03-21T12:49:42.575Z,17.80
2023-03-21T12:51:19.201Z,18.00
2023-03-21T12:52:57.156Z,18.00
2023-03-21T12:54:36.584Z,17.80
2023-03-21T12:56:14.460Z,17.60
2023-03-21T12:57:57.465Z,17.40
2023-03-21T12:59:39.366Z,17.20
2023-03-21T13:01:14.085Z,17.30
2023-03-21T13:02:54.102Z,17.50
2023-03-21T13:04:39.202Z,17.40
2023-03-21T13:06:18.184Z,17.50
2023-03-21T13:07:55.604Z,17.20
2023-03-21T13:09:37.606Z,17.20
2023-03-21T13:11:15.012Z,17.30
2023-03-21T13:12:59.591Z,17.00
2023-03-21T13:14:39.962Z,17.10
2023-03-21T13:16:16.443Z,17.40
2023-03-21T13:17:57.782Z,17.20
2023-03-21T13:19:40.023Z,17.40
2023-03-21T13:21:19.068Z,17.60
2023-03-21T13:22:52.228Z,18.00
2023-03-21T13:24:29.061Z,18.20
2023-03-21T13:26:02.387Z,18.30
2023-03-21T13:27:37.281Z,18.20
2023-03-21T13:29:25.427Z,18.20
2023-03-21T13:31:18.384Z,18.30
2023-03-21T13:32:53.342Z,18.30
2023-03-21T13:34:27.784Z,18.30
2023-03-21T13:36:05.545Z,18.20
2023-03-21T13:37:42.207Z,18.00
2023-03-21T13:39:20.073Z,17.80
2023-03-21T13:40:59.116Z,17.70
2023-03-21T13:42:34.701Z,17.60
2023-03-21T13:44:17.493Z,17.50
2023-03-21T13:45:54.444Z,17.40
2023-03-21T13:47:40.501Z,17.30
2023-03-21T13:49:27.882Z,17.20
2023-03-21T13:51:03.211Z,17.10
2023-03-21T13:52:36.376Z,17.00
2023-03-21T13:54:19.223Z,17.00
2023-03-21T13:56:22.586Z,16.90
2023-03-21T13:57:55.754Z,16.90
2023-03-21T13:59:41.285Z,16.90
2023-03-21T14:01:39.435Z,16.90
2023-03-21T14:03:17.494Z,16.90
2023-03-21T14:05:05.299Z,17.00
2023-03-21T14:06:45.101Z,17.00
2023-03-21T14:08:31.259Z,17.20
2023-03-21T14:10:18.402Z,17.30
2023-03-21T14:11:56.504Z,17.30
2023-03-21T14:13:33.058Z,17.40
2023-03-21T14:15:17.348Z,17.40
2023-03-21T14:16:53.389Z,17.30
2023-03-21T14:18:52.993Z,17.10
2023-03-21T14:20:25.488Z,17.00
2023-03-21T14:21:59.092Z,17.00
2023-03-21T14:23:32.248Z,17.20
2023-03-21T14:25:08.159Z,17.20
2023-03-21T14:26:44.382Z,17.20
2023-03-21T14:28:21.028Z,17.40
2023-03-21T14:29:54.406Z,17.20
2023-03-21T14:31:28.188Z,17.50
2023-03-21T14:33:06.853Z,17.60
2023-03-21T14:34:43.442Z,17.60
2023-03-21T14:36:20.007Z,17.40
2023-03-21T14:37:53.138Z,17.50
2023-03-21T14:39:30.373Z,17.30
2023-03-21T14:41:04.014Z,17.10
2023-03-21T14:42:38.321Z,17.10
2023-03-21T14:44:16.477Z,17.20
2023-03-21T14:45:52.979Z,17.10
2023-03-21T14:47:28.461Z,17.20
2023-03-21T14:49:13.249Z,17.30
2023-03-21T14:50:49.869Z,17.30
2023-03-21T14:52:26.226Z,17.10
2023-03-21T14:53:58.372Z,17.00
2023-03-21T14:55:32.035Z,16.80
2023-03-21T14:57:08.916Z,16.60
2023-03-21T14:58:43.289Z,16.60
2023-03-21T15:00:23.346Z,16.60
2023-03-21T15:06:53.851Z,16.10
2023-03-21T15:08:28.942Z,16.40
2023-03-21T15:10:07.161Z,16.30
2023-03-21T15:11:41.091Z,16.10
2023-03-21T15:13:17.425Z,16.00
2023-03-21T15:14:51.144Z,15.90
2023-03-21T15:16:24.684Z,15.80
2023-03-21T15:18:04.200Z,16.00
2023-03-21T15:19:39.939Z,16.10
2023-03-21T15:21:18.318Z,16.10
2023-03-21T15:22:55.818Z,15.90
2023-03-21T15:24:32.554Z,15.90
2023-03-21T15:26:07.130Z,15.80
2023-03-21T15:27:43.155Z,15.80
2023-03-21T15:29:17.940Z,15.50
2023-03-21T15:30:53.496Z,15.70
2023-03-21T15:32:29.446Z,15.60
2023-03-21T15:34:04.220Z,15.70
2023-03-21T15:35:40.671Z,15.60
2023-03-21T15:43:40.814Z,15.40
2023-03-21T15:45:22.470Z,15.40
2023-03-21T15:46:56.049Z,15.40
2023-03-21T15:48:35.050Z,15.40
2023-03-21T15:50:19.654Z,15.20
2023-03-21T15:51:56.846Z,15.40
2023-03-21T15:53:33.851Z,15.30
2023-03-21T15:55:25.926Z,15.40
2023-03-21T15:57:04.584Z,15.30
2023-03-21T15:58:41.405Z,15.20
2023-03-21T16:00:24.692Z,15.20
2023-03-21T16:01:57.977Z,15.20
2023-03-21T16:03:33.545Z,15.20
2023-03-21T16:05:23.924Z,15.10
2023-03-21T16:07:02.239Z,15.40
2023-03-21T16:08:37.216Z,15.50
2023-03-21T16:10:27.854Z,15.60
2023-03-21T16:12:01.006Z,15.60
2023-03-21T16:13:34.156Z,15.70
2023-03-21T16:15:08.744Z,15.40
2023-03-21T16:16:42.017Z,15.40
2023-03-21T16:18:17.092Z,15.60
2023-03-21T16:19:50.919Z,15.50
2023-03-21T16:21:26.554Z,15.50
2023-03-21T16:22:59.912Z,15.20
2023-03-21T16:24:33.038Z,15.10
2023-03-21T16:26:08.070Z,15.10
2023-03-21T16:27:41.312Z,15.10
2023-03-21T16:29:16.706Z,15.10
2023-03-21T16:30:49.846Z,14.90
2023-03-21T16:32:23.870Z,14.80
2023-03-21T16:33:57.126Z,14.70
2023-03-21T16:35:30.304Z,14.70
2023-03-21T16:37:03.430Z,14.60
2023-03-21T16:38:36.506Z,14.50
2023-03-21T16:40:21.518Z,14.40
2023-03-21T16:41:56.167Z,14.40
2023-03-21T16:43:30.460Z,14.20
2023-03-21T16:45:03.599Z,14.20
2023-03-21T16:46:37.149Z,14.10
2023-03-21T16:48:16.592Z,14.00
2023-03-21T16:49:49.868Z,14.00
2023-03-21T16:51:25.928Z,13.90
2023-03-21T16:52:59.695Z,13.80
2023-03-21T16:54:32.763Z,13.70
2023-03-21T16:56:06.512Z,13.70
2023-03-21T16:57:41.132Z,13.70
2023-03-21T16:59:15.434Z,13.60
2023-03-21T17:00:48.579Z,13.50
2023-03-21T17:02:27.348Z,13.50
2023-03-21T17:04:00.490Z,13.50
2023-03-21T17:05:33.885Z,13.60
2023-03-21T17:07:14.241Z,13.50
2023-03-21T17:08:47.943Z,13.60
2023-03-21T17:10:24.015Z,13.60
2023-03-21T17:11:57.108Z,13.50
2023-03-21T17:13:31.623Z,13.60
2023-03-21T17:15:05.138Z,13.40
2023-03-21T17:16:40.088Z,13.40
2023-03-21T17:18:13.697Z,13.40
2023-03-21T17:19:46.826Z,13.20
2023-03-21T17:21:22.498Z,13.30
2023-03-21T17:22:55.693Z,13.20
2023-03-21T17:24:28.815Z,13.10
2023-03-21T17:26:02.232Z,13.00
2023-03-21T17:27:35.880Z,12.90
2023-03-21T17:29:13.567Z,12.90
2023-03-21T17:30:46.752Z,12.90
2023-03-21T17:32:19.866Z,12.90
2023-03-21T17:33:52.966Z,12.90
2023-03-21T17:35:26.841Z,12.90
2023-03-21T17:37:00.402Z,12.90
2023-03-21T17:38:33.602Z,12.90
2023-03-21T17:40:08.582Z,12.90
2023-03-21T17:41:41.708Z,12.90
2023-03-21T17:43:17.931Z,12.90
2023-03-21T17:44:52.406Z,12.80
2023-03-21T17:46:27.467Z,12.80
2023-03-21T17:48:00.703Z,12.80
2023-03-21T17:49:33.822Z,12.70
2023-03-21T17:51:07.396Z,12.70
2023-03-21T17:52:40.472Z,12.60
2023-03-21T17:54:13.551Z,12.60
2023-03-21T17:55:46.688Z,12.60
2023-03-21T17:57:20.461Z,12.60
2023-03-21T17:58:54.317Z,12.50
2023-03-21T18:00:31.359Z,12.50
2023-03-21T18:02:04.885Z,12.50
2023-03-21T18:03:38.058Z,12.40
2023-03-21T18:05:11.932Z,12.40
2023-03-21T18:06:45.027Z,12.40
2023-03-21T18:08:18.481Z,12.40
2023-03-21T18:09:51.554Z,12.30
2023-03-21T18:11:25.154Z,12.30
2023-03-21T18:12:59.064Z,12.30
2023-03-21T18:14:34.219Z,12.30
2023-03-21T18:16:11.434Z,12.30
2023-03-21T18:17:44.741Z,12.30
2023-03-21T18:19:17.858Z,12.30
2023-03-21T18:20:53.704Z,12.30
2023-03-21T18:22:27.736Z,12.30
2023-03-21T18:24:00.819Z,12.40
2023-03-21T18:25:33.938Z,12.40
2023-03-21T18:27:08.760Z,12.50
2023-03-21T18:28:42.012Z,12.40
2023-03-21T18:30:36.216Z,12.40
2023-03-21T18:32:13.128Z,12.40
2023-03-21T18:33:48.013Z,12.30
2023-03-21T18:35:21.746Z,12.40
2023-03-21T18:36:55.183Z,12.40
2023-03-21T18:38:28.865Z,12.40
2023-03-21T18:40:01.993Z,12.40
2023-03-21T18:41:35.496Z,12.40
2023-03-21T18:43:52.559Z,12.30
2023-03-21T18:45:02.269Z,12.30
2023-03-21T18:46:35.393Z,12.30
2023-03-21T18:48:13.141Z,12.30
2023-03-21T18:51:40.760Z,12.20
2023-03-21T18:53:14.129Z,12.20
2023-03-21T18:54:47.663Z,12.10
2023-03-21T18:57:19.571Z,12.10
2023-03-21T18:58:14.785Z,12.10
2023-03-21T18:59:48.077Z,12.00
2023-03-21T19:01:21.239Z,12.00
2023-03-21T19:03:12.993Z,11.90
2023-03-21T19:04:52.550Z,11.80
2023-03-21T19:06:25.776Z,11.80
2023-03-21T19:07:58.878Z,11.70
2023-03-21T19:09:54.703Z,11.70
2023-03-21T19:11:26.821Z,11.70
2023-03-21T19:12:59.882Z,11.70
2023-03-21T19:14:33.482Z,11.60
2023-03-21T19:16:10.677Z,11.60
2023-03-21T19:18:30.223Z,11.60
2023-03-21T19:19:38.786Z,11.60
2023-03-21T19:21:13.260Z,11.50
2023-03-21T19:22:46.828Z,11.50
2023-03-21T19:24:27.684Z,11.40
2023-03-21T19:26:01.826Z,11.40
2023-03-21T19:27:35.774Z,11.40
2023-03-21T19:29:10.830Z,11.40
2023-03-21T19:30:49.886Z,11.40
2023-03-21T19:32:24.082Z,11.30
2023-03-21T19:33:57.132Z,11.30
2023-03-21T19:35:30.321Z,11.30
2023-03-21T19:37:05.225Z,11.30
2023-03-21T19:38:39.242Z,11.30
2023-03-21T19:40:12.963Z,11.30
2023-03-21T19:41:46.215Z,11.40
2023-03-21T19:43:33.021Z,11.40
2023-03-21T19:45:07.594Z,11.40
2023-03-21T19:46:40.993Z,11.40
2023-03-21T19:48:14.388Z,11.40
2023-03-21T19:50:38.302Z,11.40
2023-03-21T19:51:41.248Z,11.40
2023-03-21T19:53:16.044Z,11.30
2023-03-21T19:54:49.204Z,11.30
2023-03-21T19:56:26.263Z,11.30
2023-03-21T19:57:59.910Z,11.30
2023-03-21T19:59:33.102Z,11.30
2023-03-21T20:01:06.423Z,11.30
2023-03-21T20:02:40.068Z,11.30
2023-03-21T20:04:14.782Z,11.20
2023-03-21T20:05:47.913Z,11.10
2023-03-21T20:07:21.076Z,11.10
2023-03-21T20:10:49.583Z,10.90
2023-03-21T20:12:23.062Z,10.80
2023-03-21T20:13:56.478Z,10.70
2023-03-21T20:15:30.706Z,10.60
2023-03-21T20:17:04.438Z,10.40
2023-03-21T20:18:38.057Z,10.40
2023-03-21T20:20:17.675Z,10.20
2023-03-21T20:21:57.980Z,10.20
2023-03-21T20:23:35.136Z,10.10
2023-03-21T20:25:11.306Z,10.10
2023-03-21T20:26:45.849Z,10.00
2023-03-21T20:28:28.654Z,10.00
2023-03-21T20:30:10.421Z,10.00
2023-03-21T20:31:43.791Z,10.00
2023-03-21T20:33:17.945Z,9.90
2023-03-21T20:34:59.483Z,9.80
2023-03-21T20:36:41.033Z,9.80
2023-03-21T20:38:20.500Z,9.70
2023-03-21T20:39:52.781Z,8.40
2023-03-21T20:41:27.267Z,9.70
2023-03-21T20:43:28.476Z,9.70
2023-03-21T20:44:59.409Z,9.70
2023-03-21T20:46:35.263Z,9.60
2023-03-21T20:48:09.563Z,9.70
2023-03-21T20:49:42.810Z,9.70
2023-03-21T20:53:10.237Z,9.70
2023-03-21T20:54:43.444Z,9.70
2023-03-21T20:56:16.538Z,9.70
2023-03-21T20:57:51.116Z,9.70
2023-03-21T20:59:27.742Z,9.70
2023-03-21T21:01:03.908Z,9.90
2023-03-21T21:02:37.297Z,10.10
2023-03-21T21:04:10.417Z,10.30
2023-03-21T21:05:46.466Z,10.50
2023-03-21T21:07:21.122Z,10.70
2023-03-21T21:08:55.533Z,11.00
2023-03-21T21:10:28.811Z,10.80
2023-03-21T21:12:06.957Z,11.00
2023-03-21T21:13:41.640Z,11.10
2023-03-21T21:15:16.923Z,11.20
2023-03-21T21:16:50.601Z,11.20
2023-03-21T21:18:23.709Z,11.30
2023-03-21T21:19:55.883Z,11.30
2023-03-21T21:21:28.980Z,11.30
2023-03-21T21:23:02.104Z,11.30
2023-03-21T21:24:35.623Z,11.30
2023-03-21T21:26:10.233Z,11.20
2023-03-21T21:27:43.458Z,11.00
2023-03-21T21:29:18.729Z,11.00
2023-03-21T21:30:53.605Z,10.90
2023-03-21T21:32:26.550Z,10.90
2023-03-21T21:33:59.731Z,10.90
2023-03-21T21:35:34.435Z,10.80
2023-03-21T21:37:07.580Z,10.80
2023-03-21T21:38:41.878Z,10.80
2023-03-21T21:40:20.184Z,10.70
2023-03-21T21:41:53.278Z,10.70
2023-03-21T21:43:26.406Z,10.70
2023-03-21T21:45:00.922Z,10.70
2023-03-21T21:46:34.023Z,10.70
2023-03-21T21:48:08.137Z,10.70
2023-03-21T21:49:41.411Z,10.60
2023-03-21T21:51:18.069Z,10.50
2023-03-21T21:52:54.638Z,10.50
2023-03-21T21:54:30.090Z,10.50
2023-03-21T21:56:06.361Z,10.40
2023-03-21T21:57:39.745Z,10.40
2023-03-21T21:59:16.316Z,10.40
2023-03-21T22:00:51.156Z,10.40
2023-03-21T22:02:25.433Z,10.40
2023-03-21T22:04:06.030Z,10.40
2023-03-21T22:05:39.256Z,10.40
2023-03-21T22:07:14.546Z,10.40
2023-03-21T22:08:47.882Z,10.40
2023-03-21T22:10:21.788Z,10.40
2023-03-21T22:11:56.621Z,10.40
2023-03-21T22:13:30.032Z,10.40
2023-03-21T22:15:04.051Z,10.40
2023-03-21T22:16:38.510Z,10.40
2023-03-21T22:18:11.672Z,10.40
2023-03-21T22:19:52.721Z,10.30
2023-03-21T22:21:32.172Z,10.30
2023-03-21T22:23:05.414Z,10.50
2023-03-21T22:24:38.520Z,10.90
2023-03-21T22:26:12.050Z,11.00
2023-03-21T22:27:45.588Z,11.30
2023-03-21T22:29:18.749Z,11.30
2023-03-21T22:30:52.006Z,11.30
2023-03-21T22:32:26.525Z,11.30
2023-03-21T22:33:59.596Z,11.40
2023-03-21T22:35:32.691Z,11.40
2023-03-21T22:37:05.960Z,11.40
2023-03-21T22:38:39.158Z,11.50
2023-03-21T22:40:14.484Z,11.60
2023-03-21T22:41:47.723Z,11.70
2023-03-21T22:43:19.780Z,11.70
2023-03-21T22:44:53.171Z,11.60
2023-03-21T22:46:27.578Z,11.50
2023-03-21T22:48:02.191Z,11.40
2023-03-21T22:49:35.510Z,11.20
2023-03-21T22:51:08.983Z,11.10
2023-03-21T22:52:42.090Z,11.10
2023-03-21T22:54:15.334Z,11.00
2023-03-21T22:55:48.421Z,10.90
2023-03-21T22:57:21.675Z,10.80
2023-03-21T22:58:57.090Z,10.80
2023-03-21T23:00:30.248Z,10.70
2023-03-21T23:02:03.416Z,10.70
2023-03-21T23:03:38.230Z,10.70
2023-03-21T23:05:12.160Z,10.60
2023-03-21T23:06:46.267Z,10.60
2023-03-21T23:08:19.425Z,10.50
2023-03-21T23:09:52.563Z,10.50
2023-03-21T23:11:26.014Z,10.40
2023-03-21T23:12:58.168Z,10.40
2023-03-21T23:14:31.407Z,10.50
2023-03-21T23:16:05.627Z,10.40
2023-03-21T23:17:38.029Z,10.40
2023-03-21T23:19:13.090Z,10.40
2023-03-21T23:20:49.504Z,10.40
2023-03-21T23:22:22.571Z,10.30
2023-03-21T23:23:55.651Z,10.30
2023-03-21T23:25:30.394Z,10.40
2023-03-21T23:27:04.041Z,10.30
2023-03-21T23:28:37.131Z,10.30
2023-03-21T23:30:10.891Z,10.30
2023-03-21T23:31:43.997Z,10.20
2023-03-21T23:33:17.134Z,10.20
2023-03-21T23:34:51.624Z,10.20
2023-03-21T23:36:24.777Z,10.20
2023-03-21T23:37:57.911Z,10.20
2023-03-21T23:39:33.599Z,10.20
2023-03-21T23:41:08.671Z,10.20
2023-03-21T23:42:41.799Z,10.20
2023-03-21T23:44:15.303Z,10.20
2023-03-21T23:45:48.414Z,10.20
2023-03-21T23:47:21.506Z,10.10
2023-03-21T23:48:54.599Z,10.10
2023-03-21T23:50:29.073Z,10.10
2023-03-21T23:52:02.126Z,10.20
2023-03-21T23:53:35.381Z,10.20
2023-03-21T23:55:09.556Z,10.20
2023-03-21T23:56:43.151Z,10.20
2023-03-21T23:58:16.520Z,10.20
2023-03-21T23:59:49.575Z,10.20
